sensor_id;sensor_type;location;lat;lon;timestamp;P1;durP1;ratioP1;P2;durP2;ratioP2
54139;SDS011;40046;53.254;5.900;2023-07-31T00:01:48;9.07;;;1.83;;
54139;SDS011;40046;53.254;5.900;2023-07-31T00:04:14;10.10;;;2.63;;
54139;SDS011;40046;53.254;5.900;2023-07-31T00:06:40;7.18;;;2.13;;
54139;SDS011;40046;53.254;5.900;2023-07-31T00:09:07;7.38;;;2.42;;
54139;SDS011;40046;53.254;5.900;2023-07-31T00:11:33;9.50;;;1.95;;
54139;SDS011;40046;53.254;5.900;2023-07-31T00:13:59;7.05;;;1.98;;
54139;SDS011;40046;53.254;5.900;2023-07-31T00:16:25;6.43;;;2.08;;
54139;SDS011;40046;53.254;5.900;2023-07-31T00:18:51;8.52;;;1.77;;
54139;SDS011;40046;53.254;5.900;2023-07-31T00:21:17;7.00;;;1.88;;
54139;SDS011;40046;53.254;5.900;2023-07-31T00:23:44;5.03;;;1.90;;
54139;SDS011;40046;53.254;5.900;2023-07-31T00:26:10;10.27;;;2.55;;
54139;SDS011;40046;53.254;5.900;2023-07-31T00:28:36;11.30;;;2.42;;
54139;SDS011;40046;53.254;5.900;2023-07-31T00:31:02;10.20;;;2.38;;
54139;SDS011;40046;53.254;5.900;2023-07-31T00:33:29;14.02;;;2.08;;
54139;SDS011;40046;53.254;5.900;2023-07-31T00:35:55;6.97;;;1.85;;
54139;SDS011;40046;53.254;5.900;2023-07-31T00:38:21;10.45;;;2.20;;
54139;SDS011;40046;53.254;5.900;2023-07-31T00:40:47;10.75;;;2.42;;
54139;SDS011;40046;53.254;5.900;2023-07-31T00:43:14;11.95;;;2.63;;
54139;SDS011;40046;53.254;5.900;2023-07-31T00:45:40;8.95;;;1.80;;
54139;SDS011;40046;53.254;5.900;2023-07-31T00:48:06;8.70;;;1.50;;
54139;SDS011;40046;53.254;5.900;2023-07-31T00:50:33;5.10;;;1.85;;
54139;SDS011;40046;53.254;5.900;2023-07-31T00:52:59;5.75;;;1.50;;
54139;SDS011;40046;53.254;5.900;2023-07-31T00:55:25;10.25;;;2.08;;
54139;SDS011;40046;53.254;5.900;2023-07-31T00:57:51;7.97;;;1.75;;
54139;SDS011;40046;53.254;5.900;2023-07-31T01:00:20;11.45;;;2.50;;
54139;SDS011;40046;53.254;5.900;2023-07-31T01:02:47;9.27;;;2.25;;
54139;SDS011;40046;53.254;5.900;2023-07-31T01:05:13;8.70;;;1.88;;
54139;SDS011;40046;53.254;5.900;2023-07-31T01:10:22;4.75;;;1.60;;
54139;SDS011;40046;53.254;5.900;2023-07-31T01:12:50;8.35;;;2.20;;
54139;SDS011;40046;53.254;5.900;2023-07-31T01:15:17;9.35;;;2.15;;
54139;SDS011;40046;53.254;5.900;2023-07-31T01:17:43;8.63;;;2.47;;
54139;SDS011;40046;53.254;5.900;2023-07-31T01:20:11;8.45;;;1.85;;
54139;SDS011;40046;53.254;5.900;2023-07-31T01:27:51;12.02;;;1.73;;
54139;SDS011;40046;53.254;5.900;2023-07-31T01:30:21;11.10;;;2.42;;
54139;SDS011;40046;53.254;5.900;2023-07-31T01:32:49;8.88;;;2.42;;
54139;SDS011;40046;53.254;5.900;2023-07-31T01:35:15;7.55;;;2.10;;
54139;SDS011;40046;53.254;5.900;2023-07-31T01:37:41;7.38;;;2.47;;
54139;SDS011;40046;53.254;5.900;2023-07-31T01:40:08;16.38;;;2.70;;
54139;SDS011;40046;53.254;5.900;2023-07-31T01:42:34;12.73;;;2.92;;
54139;SDS011;40046;53.254;5.900;2023-07-31T01:45:00;9.45;;;2.30;;
54139;SDS011;40046;53.254;5.900;2023-07-31T01:47:27;12.95;;;2.25;;
54139;SDS011;40046;53.254;5.900;2023-07-31T01:49:53;10.55;;;2.30;;
54139;SDS011;40046;53.254;5.900;2023-07-31T01:52:19;8.43;;;2.00;;
54139;SDS011;40046;53.254;5.900;2023-07-31T01:54:45;6.88;;;2.05;;
54139;SDS011;40046;53.254;5.900;2023-07-31T01:57:11;11.55;;;2.70;;
54139;SDS011;40046;53.254;5.900;2023-07-31T01:59:37;9.43;;;1.70;;
54139;SDS011;40046;53.254;5.900;2023-07-31T02:02:03;9.55;;;2.00;;
54139;SDS011;40046;53.254;5.900;2023-07-31T02:04:29;6.90;;;2.95;;
54139;SDS011;40046;53.254;5.900;2023-07-31T02:06:56;10.95;;;2.33;;
54139;SDS011;40046;53.254;5.900;2023-07-31T02:09:22;8.15;;;2.85;;
54139;SDS011;40046;53.254;5.900;2023-07-31T02:11:48;9.27;;;1.92;;
54139;SDS011;40046;53.254;5.900;2023-07-31T02:14:14;7.28;;;2.45;;
54139;SDS011;40046;53.254;5.900;2023-07-31T02:16:41;11.38;;;2.15;;
54139;SDS011;40046;53.254;5.900;2023-07-31T02:19:08;5.35;;;1.70;;
54139;SDS011;40046;53.254;5.900;2023-07-31T02:21:34;7.53;;;1.70;;
54139;SDS011;40046;53.254;5.900;2023-07-31T02:24:00;5.15;;;1.50;;
54139;SDS011;40046;53.254;5.900;2023-07-31T02:26:26;10.43;;;2.55;;
54139;SDS011;40046;53.254;5.900;2023-07-31T02:28:52;12.05;;;2.70;;
54139;SDS011;40046;53.254;5.900;2023-07-31T02:31:18;11.32;;;2.95;;
54139;SDS011;40046;53.254;5.900;2023-07-31T02:33:44;11.63;;;2.20;;
54139;SDS011;40046;53.254;5.900;2023-07-31T02:36:10;6.63;;;2.00;;
54139;SDS011;40046;53.254;5.900;2023-07-31T02:38:37;8.88;;;2.63;;
54139;SDS011;40046;53.254;5.900;2023-07-31T02:41:03;5.03;;;2.08;;
54139;SDS011;40046;53.254;5.900;2023-07-31T02:43:29;5.30;;;1.60;;
54139;SDS011;40046;53.254;5.900;2023-07-31T02:45:55;6.45;;;2.08;;
54139;SDS011;40046;53.254;5.900;2023-07-31T02:48:23;10.27;;;2.38;;
54139;SDS011;40046;53.254;5.900;2023-07-31T02:50:49;7.63;;;2.17;;
54139;SDS011;40046;53.254;5.900;2023-07-31T02:53:15;4.78;;;1.65;;
54139;SDS011;40046;53.254;5.900;2023-07-31T02:55:42;8.05;;;2.33;;
54139;SDS011;40046;53.254;5.900;2023-07-31T02:58:08;5.45;;;2.08;;
54139;SDS011;40046;53.254;5.900;2023-07-31T03:00:34;8.80;;;1.70;;
54139;SDS011;40046;53.254;5.900;2023-07-31T03:03:00;4.80;;;1.30;;
54139;SDS011;40046;53.254;5.900;2023-07-31T03:05:27;6.07;;;1.52;;
54139;SDS011;40046;53.254;5.900;2023-07-31T03:07:53;8.02;;;1.95;;
54139;SDS011;40046;53.254;5.900;2023-07-31T03:10:19;8.98;;;2.05;;
54139;SDS011;40046;53.254;5.900;2023-07-31T03:12:48;5.85;;;1.33;;
54139;SDS011;40046;53.254;5.900;2023-07-31T03:15:15;7.18;;;1.48;;
54139;SDS011;40046;53.254;5.900;2023-07-31T03:17:41;7.40;;;1.50;;
54139;SDS011;40046;53.254;5.900;2023-07-31T03:20:08;5.38;;;1.42;;
54139;SDS011;40046;53.254;5.900;2023-07-31T03:22:34;8.75;;;2.25;;
54139;SDS011;40046;53.254;5.900;2023-07-31T03:25:01;4.80;;;1.75;;
54139;SDS011;40046;53.254;5.900;2023-07-31T03:27:27;8.15;;;2.35;;
54139;SDS011;40046;53.254;5.900;2023-07-31T03:29:53;3.83;;;1.10;;
54139;SDS011;40046;53.254;5.900;2023-07-31T03:32:19;4.72;;;1.20;;
54139;SDS011;40046;53.254;5.900;2023-07-31T03:34:45;5.10;;;2.03;;
54139;SDS011;40046;53.254;5.900;2023-07-31T03:37:12;1.67;;;0.82;;
54139;SDS011;40046;53.254;5.900;2023-07-31T03:39:38;6.85;;;1.00;;
54139;SDS011;40046;53.254;5.900;2023-07-31T03:42:04;2.63;;;1.05;;
54139;SDS011;40046;53.254;5.900;2023-07-31T03:44:30;1.27;;;0.70;;
54139;SDS011;40046;53.254;5.900;2023-07-31T03:46:56;1.67;;;0.60;;
54139;SDS011;40046;53.254;5.900;2023-07-31T03:49:23;2.45;;;0.73;;
54139;SDS011;40046;53.254;5.900;2023-07-31T03:51:49;2.13;;;0.75;;
54139;SDS011;40046;53.254;5.900;2023-07-31T03:54:15;2.97;;;0.75;;
54139;SDS011;40046;53.254;5.900;2023-07-31T03:56:41;2.35;;;0.70;;
54139;SDS011;40046;53.254;5.900;2023-07-31T03:59:07;1.73;;;0.70;;
54139;SDS011;40046;53.254;5.900;2023-07-31T04:01:33;2.60;;;0.70;;
54139;SDS011;40046;53.254;5.900;2023-07-31T04:04:00;3.03;;;0.73;;
54139;SDS011;40046;53.254;5.900;2023-07-31T04:06:26;2.63;;;0.73;;
54139;SDS011;40046;53.254;5.900;2023-07-31T04:08:52;2.47;;;0.60;;
54139;SDS011;40046;53.254;5.900;2023-07-31T04:11:18;1.10;;;0.47;;
54139;SDS011;40046;53.254;5.900;2023-07-31T04:13:44;2.40;;;0.50;;
54139;SDS011;40046;53.254;5.900;2023-07-31T04:16:10;1.45;;;0.52;;
54139;SDS011;40046;53.254;5.900;2023-07-31T04:18:37;1.10;;;0.40;;
54139;SDS011;40046;53.254;5.900;2023-07-31T04:21:03;1.42;;;0.50;;
54139;SDS011;40046;53.254;5.900;2023-07-31T04:23:29;2.30;;;0.80;;
54139;SDS011;40046;53.254;5.900;2023-07-31T04:25:55;2.30;;;0.82;;
54139;SDS011;40046;53.254;5.900;2023-07-31T04:28:21;3.08;;;0.93;;
54139;SDS011;40046;53.254;5.900;2023-07-31T04:30:48;4.07;;;0.73;;
54139;SDS011;40046;53.254;5.900;2023-07-31T04:33:14;2.97;;;0.90;;
54139;SDS011;40046;53.254;5.900;2023-07-31T04:35:40;3.10;;;1.00;;
54139;SDS011;40046;53.254;5.900;2023-07-31T04:38:06;3.25;;;1.27;;
54139;SDS011;40046;53.254;5.900;2023-07-31T04:40:32;3.47;;;1.38;;
54139;SDS011;40046;53.254;5.900;2023-07-31T04:42:58;6.47;;;2.90;;
54139;SDS011;40046;53.254;5.900;2023-07-31T04:45:24;8.50;;;2.90;;
54139;SDS011;40046;53.254;5.900;2023-07-31T04:47:51;13.68;;;3.45;;
54139;SDS011;40046;53.254;5.900;2023-07-31T04:50:17;7.65;;;3.88;;
54139;SDS011;40046;53.254;5.900;2023-07-31T04:52:43;10.45;;;3.75;;
54139;SDS011;40046;53.254;5.900;2023-07-31T04:55:09;11.43;;;4.53;;
54139;SDS011;40046;53.254;5.900;2023-07-31T04:57:35;11.25;;;5.05;;
54139;SDS011;40046;53.254;5.900;2023-07-31T05:00:01;11.38;;;4.03;;
54139;SDS011;40046;53.254;5.900;2023-07-31T05:02:27;10.15;;;5.03;;
54139;SDS011;40046;53.254;5.900;2023-07-31T05:04:54;9.50;;;4.40;;
54139;SDS011;40046;53.254;5.900;2023-07-31T05:07:20;11.52;;;4.15;;
54139;SDS011;40046;53.254;5.900;2023-07-31T05:09:46;12.40;;;4.22;;
54139;SDS011;40046;53.254;5.900;2023-07-31T05:12:12;17.23;;;9.60;;
54139;SDS011;40046;53.254;5.900;2023-07-31T05:14:38;12.68;;;5.00;;
54139;SDS011;40046;53.254;5.900;2023-07-31T05:17:04;11.60;;;4.55;;
54139;SDS011;40046;53.254;5.900;2023-07-31T05:19:31;16.38;;;4.35;;
54139;SDS011;40046;53.254;5.900;2023-07-31T05:21:57;13.73;;;5.80;;
54139;SDS011;40046;53.254;5.900;2023-07-31T05:24:23;8.38;;;3.30;;
54139;SDS011;40046;53.254;5.900;2023-07-31T05:26:49;14.10;;;5.07;;
54139;SDS011;40046;53.254;5.900;2023-07-31T05:29:15;10.77;;;3.65;;
54139;SDS011;40046;53.254;5.900;2023-07-31T05:31:41;12.80;;;4.47;;
54139;SDS011;40046;53.254;5.900;2023-07-31T05:34:08;12.63;;;5.47;;
54139;SDS011;40046;53.254;5.900;2023-07-31T05:36:34;15.45;;;5.80;;
54139;SDS011;40046;53.254;5.900;2023-07-31T05:39:00;19.98;;;6.40;;
54139;SDS011;40046;53.254;5.900;2023-07-31T05:41:31;13.45;;;4.60;;
54139;SDS011;40046;53.254;5.900;2023-07-31T05:43:57;17.13;;;5.35;;
54139;SDS011;40046;53.254;5.900;2023-07-31T05:46:23;17.33;;;6.18;;
54139;SDS011;40046;53.254;5.900;2023-07-31T05:48:49;19.33;;;5.85;;
54139;SDS011;40046;53.254;5.900;2023-07-31T05:51:16;18.48;;;5.72;;
54139;SDS011;40046;53.254;5.900;2023-07-31T05:53:42;17.20;;;6.35;;
54139;SDS011;40046;53.254;5.900;2023-07-31T05:56:08;15.32;;;6.07;;
54139;SDS011;40046;53.254;5.900;2023-07-31T05:58:35;16.08;;;6.40;;
54139;SDS011;40046;53.254;5.900;2023-07-31T06:01:01;23.52;;;7.28;;
54139;SDS011;40046;53.254;5.900;2023-07-31T06:03:27;16.17;;;4.55;;
54139;SDS011;40046;53.254;5.900;2023-07-31T06:05:53;17.58;;;6.35;;
54139;SDS011;40046;53.254;5.900;2023-07-31T06:08:19;14.63;;;4.28;;
54139;SDS011;40046;53.254;5.900;2023-07-31T06:10:45;8.43;;;2.95;;
54139;SDS011;40046;53.254;5.900;2023-07-31T06:13:11;8.00;;;3.28;;
54139;SDS011;40046;53.254;5.900;2023-07-31T06:15:37;8.27;;;3.30;;
54139;SDS011;40046;53.254;5.900;2023-07-31T06:18:03;10.77;;;3.40;;
54139;SDS011;40046;53.254;5.900;2023-07-31T06:20:33;8.38;;;2.90;;
54139;SDS011;40046;53.254;5.900;2023-07-31T06:22:59;10.45;;;3.15;;
54139;SDS011;40046;53.254;5.900;2023-07-31T06:25:25;12.57;;;3.60;;
54139;SDS011;40046;53.254;5.900;2023-07-31T06:27:51;7.57;;;2.78;;
54139;SDS011;40046;53.254;5.900;2023-07-31T06:30:18;7.35;;;2.53;;
54139;SDS011;40046;53.254;5.900;2023-07-31T06:32:44;8.15;;;2.83;;
54139;SDS011;40046;53.254;5.900;2023-07-31T06:35:10;6.40;;;1.92;;
54139;SDS011;40046;53.254;5.900;2023-07-31T06:37:36;6.55;;;2.20;;
54139;SDS011;40046;53.254;5.900;2023-07-31T06:40:05;5.50;;;2.13;;
54139;SDS011;40046;53.254;5.900;2023-07-31T06:42:34;9.15;;;3.03;;
54139;SDS011;40046;53.254;5.900;2023-07-31T06:45:01;12.18;;;3.58;;
54139;SDS011;40046;53.254;5.900;2023-07-31T06:47:27;12.75;;;4.45;;
54139;SDS011;40046;53.254;5.900;2023-07-31T06:49:53;11.13;;;3.80;;
54139;SDS011;40046;53.254;5.900;2023-07-31T06:52:19;9.20;;;3.63;;
54139;SDS011;40046;53.254;5.900;2023-07-31T06:54:57;10.88;;;3.97;;
54139;SDS011;40046;53.254;5.900;2023-07-31T06:57:25;11.10;;;3.92;;
54139;SDS011;40046;53.254;5.900;2023-07-31T06:59:52;12.70;;;4.65;;
54139;SDS011;40046;53.254;5.900;2023-07-31T07:02:18;13.55;;;4.03;;
54139;SDS011;40046;53.254;5.900;2023-07-31T07:04:44;12.32;;;3.97;;
54139;SDS011;40046;53.254;5.900;2023-07-31T07:07:10;13.23;;;4.40;;
54139;SDS011;40046;53.254;5.900;2023-07-31T07:09:36;11.10;;;3.88;;
54139;SDS011;40046;53.254;5.900;2023-07-31T07:12:02;6.78;;;2.95;;
54139;SDS011;40046;53.254;5.900;2023-07-31T07:14:29;6.28;;;2.80;;
54139;SDS011;40046;53.254;5.900;2023-07-31T07:16:55;6.90;;;2.60;;
54139;SDS011;40046;53.254;5.900;2023-07-31T07:19:21;7.28;;;2.80;;
54139;SDS011;40046;53.254;5.900;2023-07-31T07:21:47;7.53;;;2.67;;
54139;SDS011;40046;53.254;5.900;2023-07-31T07:24:13;5.43;;;2.22;;
54139;SDS011;40046;53.254;5.900;2023-07-31T07:26:39;7.85;;;3.45;;
54139;SDS011;40046;53.254;5.900;2023-07-31T07:29:05;4.80;;;2.15;;
54139;SDS011;40046;53.254;5.900;2023-07-31T07:31:33;7.07;;;2.20;;
54139;SDS011;40046;53.254;5.900;2023-07-31T07:33:59;5.88;;;2.17;;
54139;SDS011;40046;53.254;5.900;2023-07-31T07:36:27;4.85;;;1.70;;
54139;SDS011;40046;53.254;5.900;2023-07-31T07:38:53;3.03;;;1.23;;
54139;SDS011;40046;53.254;5.900;2023-07-31T07:41:19;5.07;;;1.90;;
54139;SDS011;40046;53.254;5.900;2023-07-31T07:43:45;2.92;;;1.35;;
54139;SDS011;40046;53.254;5.900;2023-07-31T07:46:11;5.90;;;2.42;;
54139;SDS011;40046;53.254;5.900;2023-07-31T07:48:38;4.90;;;1.70;;
54139;SDS011;40046;53.254;5.900;2023-07-31T07:51:04;5.25;;;1.33;;
54139;SDS011;40046;53.254;5.900;2023-07-31T07:53:30;4.32;;;1.40;;
54139;SDS011;40046;53.254;5.900;2023-07-31T07:55:56;4.60;;;1.50;;
54139;SDS011;40046;53.254;5.900;2023-07-31T07:58:22;3.00;;;0.95;;
54139;SDS011;40046;53.254;5.900;2023-07-31T08:00:50;3.15;;;1.30;;
54139;SDS011;40046;53.254;5.900;2023-07-31T08:03:16;2.50;;;0.90;;
54139;SDS011;40046;53.254;5.900;2023-07-31T08:05:43;2.25;;;0.60;;
54139;SDS011;40046;53.254;5.900;2023-07-31T08:08:13;4.43;;;0.90;;
54139;SDS011;40046;53.254;5.900;2023-07-31T08:10:39;2.30;;;0.73;;
54139;SDS011;40046;53.254;5.900;2023-07-31T08:13:05;2.00;;;0.77;;
54139;SDS011;40046;53.254;5.900;2023-07-31T08:15:31;1.45;;;0.50;;
54139;SDS011;40046;53.254;5.900;2023-07-31T08:17:58;2.20;;;0.70;;
54139;SDS011;40046;53.254;5.900;2023-07-31T08:20:24;2.42;;;0.68;;
54139;SDS011;40046;53.254;5.900;2023-07-31T08:22:50;3.00;;;0.80;;
54139;SDS011;40046;53.254;5.900;2023-07-31T08:25:17;2.45;;;0.88;;
54139;SDS011;40046;53.254;5.900;2023-07-31T08:27:43;4.20;;;1.10;;
54139;SDS011;40046;53.254;5.900;2023-07-31T08:30:10;3.33;;;0.93;;
54139;SDS011;40046;53.254;5.900;2023-07-31T08:32:36;7.40;;;1.42;;
54139;SDS011;40046;53.254;5.900;2023-07-31T08:35:02;3.72;;;1.20;;
54139;SDS011;40046;53.254;5.900;2023-07-31T08:37:29;5.68;;;1.45;;
54139;SDS011;40046;53.254;5.900;2023-07-31T08:39:55;6.03;;;1.20;;
54139;SDS011;40046;53.254;5.900;2023-07-31T08:42:21;6.40;;;1.13;;
54139;SDS011;40046;53.254;5.900;2023-07-31T08:44:48;6.93;;;1.17;;
54139;SDS011;40046;53.254;5.900;2023-07-31T08:47:15;5.82;;;1.10;;
54139;SDS011;40046;53.254;5.900;2023-07-31T08:49:41;4.97;;;1.08;;
54139;SDS011;40046;53.254;5.900;2023-07-31T08:52:08;3.33;;;0.75;;
54139;SDS011;40046;53.254;5.900;2023-07-31T08:54:34;6.90;;;5.05;;
54139;SDS011;40046;53.254;5.900;2023-07-31T08:57:00;4.30;;;1.23;;
54139;SDS011;40046;53.254;5.900;2023-07-31T08:59:27;5.38;;;1.10;;
54139;SDS011;40046;53.254;5.900;2023-07-31T09:01:55;4.28;;;0.88;;
54139;SDS011;40046;53.254;5.900;2023-07-31T09:04:21;3.80;;;0.98;;
54139;SDS011;40046;53.254;5.900;2023-07-31T09:06:48;4.45;;;1.10;;
54139;SDS011;40046;53.254;5.900;2023-07-31T09:09:15;3.70;;;1.10;;
54139;SDS011;40046;53.254;5.900;2023-07-31T09:11:41;4.50;;;1.05;;
54139;SDS011;40046;53.254;5.900;2023-07-31T09:14:08;5.63;;;1.25;;
54139;SDS011;40046;53.254;5.900;2023-07-31T09:16:34;3.30;;;1.05;;
54139;SDS011;40046;53.254;5.900;2023-07-31T09:19:00;6.55;;;1.30;;
54139;SDS011;40046;53.254;5.900;2023-07-31T09:21:28;4.05;;;1.67;;
54139;SDS011;40046;53.254;5.900;2023-07-31T09:23:54;4.40;;;1.10;;
54139;SDS011;40046;53.254;5.900;2023-07-31T09:26:30;7.18;;;1.35;;
54139;SDS011;40046;53.254;5.900;2023-07-31T09:28:57;4.65;;;1.13;;
54139;SDS011;40046;53.254;5.900;2023-07-31T09:33:59;3.95;;;1.13;;
54139;SDS011;40046;53.254;5.900;2023-07-31T09:36:28;2.55;;;0.90;;
54139;SDS011;40046;53.254;5.900;2023-07-31T09:38:55;3.78;;;0.82;;
54139;SDS011;40046;53.254;5.900;2023-07-31T09:41:21;2.65;;;0.80;;
54139;SDS011;40046;53.254;5.900;2023-07-31T09:43:54;1.50;;;0.65;;
54139;SDS011;40046;53.254;5.900;2023-07-31T09:46:20;0.85;;;0.45;;
54139;SDS011;40046;53.254;5.900;2023-07-31T09:48:47;1.20;;;0.50;;
54139;SDS011;40046;53.254;5.900;2023-07-31T09:51:13;1.40;;;0.50;;
54139;SDS011;40046;53.254;5.900;2023-07-31T09:53:39;1.58;;;0.60;;
54139;SDS011;40046;53.254;5.900;2023-07-31T09:56:05;2.17;;;0.50;;
54139;SDS011;40046;53.254;5.900;2023-07-31T09:58:32;3.05;;;0.85;;
54139;SDS011;40046;53.254;5.900;2023-07-31T10:01:00;1.30;;;0.32;;
54139;SDS011;40046;53.254;5.900;2023-07-31T10:03:27;1.95;;;0.90;;
54139;SDS011;40046;53.254;5.900;2023-07-31T10:05:55;4.25;;;0.63;;
54139;SDS011;40046;53.254;5.900;2023-07-31T10:08:22;3.20;;;1.02;;
54139;SDS011;40046;53.254;5.900;2023-07-31T10:10:49;2.30;;;0.82;;
54139;SDS011;40046;53.254;5.900;2023-07-31T10:13:15;1.77;;;0.30;;
54139;SDS011;40046;53.254;5.900;2023-07-31T10:15:42;2.53;;;0.68;;
54139;SDS011;40046;53.254;5.900;2023-07-31T10:18:08;3.88;;;0.57;;
54139;SDS011;40046;53.254;5.900;2023-07-31T10:20:35;5.10;;;0.70;;
54139;SDS011;40046;53.254;5.900;2023-07-31T10:23:01;2.53;;;0.70;;
54139;SDS011;40046;53.254;5.900;2023-07-31T10:25:27;1.63;;;0.50;;
54139;SDS011;40046;53.254;5.900;2023-07-31T10:27:55;2.70;;;0.45;;
54139;SDS011;40046;53.254;5.900;2023-07-31T10:30:24;2.45;;;0.55;;
54139;SDS011;40046;53.254;5.900;2023-07-31T10:32:51;2.78;;;0.70;;
54139;SDS011;40046;53.254;5.900;2023-07-31T10:35:19;3.17;;;0.80;;
54139;SDS011;40046;53.254;5.900;2023-07-31T10:37:47;5.18;;;0.88;;
54139;SDS011;40046;53.254;5.900;2023-07-31T10:40:47;4.07;;;1.30;;
54139;SDS011;40046;53.254;5.900;2023-07-31T10:43:06;5.07;;;1.58;;
54139;SDS011;40046;53.254;5.900;2023-07-31T10:45:37;2.78;;;1.10;;
54139;SDS011;40046;53.254;5.900;2023-07-31T10:50:30;5.10;;;1.40;;
54139;SDS011;40046;53.254;5.900;2023-07-31T10:52:58;9.25;;;1.52;;
54139;SDS011;40046;53.254;5.900;2023-07-31T10:55:41;8.45;;;1.92;;
54139;SDS011;40046;53.254;5.900;2023-07-31T10:58:08;7.35;;;1.63;;
54139;SDS011;40046;53.254;5.900;2023-07-31T11:00:36;5.60;;;1.50;;
54139;SDS011;40046;53.254;5.900;2023-07-31T11:03:06;6.10;;;2.13;;
54139;SDS011;40046;53.254;5.900;2023-07-31T11:06:07;5.53;;;1.35;;
54139;SDS011;40046;53.254;5.900;2023-07-31T11:08:29;4.15;;;1.20;;
54139;SDS011;40046;53.254;5.900;2023-07-31T11:13:28;3.88;;;1.20;;
54139;SDS011;40046;53.254;5.900;2023-07-31T11:15:54;4.50;;;1.35;;
54139;SDS011;40046;53.254;5.900;2023-07-31T11:18:20;5.57;;;1.23;;
54139;SDS011;40046;53.254;5.900;2023-07-31T11:20:46;4.40;;;1.00;;
54139;SDS011;40046;53.254;5.900;2023-07-31T11:23:12;6.20;;;1.15;;
54139;SDS011;40046;53.254;5.900;2023-07-31T11:25:39;5.50;;;1.20;;
54139;SDS011;40046;53.254;5.900;2023-07-31T11:28:16;4.15;;;1.17;;
54139;SDS011;40046;53.254;5.900;2023-07-31T11:30:43;5.57;;;1.75;;
54139;SDS011;40046;53.254;5.900;2023-07-31T11:33:10;4.32;;;1.10;;
54139;SDS011;40046;53.254;5.900;2023-07-31T11:35:40;3.65;;;1.13;;
54139;SDS011;40046;53.254;5.900;2023-07-31T11:38:07;4.07;;;1.20;;
54139;SDS011;40046;53.254;5.900;2023-07-31T11:40:40;5.47;;;1.80;;
54139;SDS011;40046;53.254;5.900;2023-07-31T11:43:06;4.32;;;1.17;;
54139;SDS011;40046;53.254;5.900;2023-07-31T11:45:33;3.72;;;1.30;;
54139;SDS011;40046;53.254;5.900;2023-07-31T11:48:00;7.40;;;1.40;;
54139;SDS011;40046;53.254;5.900;2023-07-31T11:50:26;5.03;;;1.10;;
54139;SDS011;40046;53.254;5.900;2023-07-31T11:52:57;3.35;;;1.08;;
54139;SDS011;40046;53.254;5.900;2023-07-31T11:55:24;2.78;;;0.60;;
54139;SDS011;40046;53.254;5.900;2023-07-31T11:57:50;8.23;;;2.03;;
54139;SDS011;40046;53.254;5.900;2023-07-31T12:00:17;4.22;;;1.00;;
54139;SDS011;40046;53.254;5.900;2023-07-31T12:02:43;2.03;;;0.68;;
54139;SDS011;40046;53.254;5.900;2023-07-31T12:05:12;5.63;;;1.40;;
54139;SDS011;40046;53.254;5.900;2023-07-31T12:10:27;5.18;;;1.00;;
54139;SDS011;40046;53.254;5.900;2023-07-31T12:15:31;7.20;;;2.42;;
54139;SDS011;40046;53.254;5.900;2023-07-31T12:17:58;5.55;;;1.52;;
54139;SDS011;40046;53.254;5.900;2023-07-31T12:20:24;9.07;;;2.20;;
54139;SDS011;40046;53.254;5.900;2023-07-31T12:22:50;8.40;;;2.05;;
54139;SDS011;40046;53.254;5.900;2023-07-31T12:25:16;6.57;;;1.55;;
54139;SDS011;40046;53.254;5.900;2023-07-31T12:27:46;7.82;;;2.28;;
54139;SDS011;40046;53.254;5.900;2023-07-31T12:32:56;9.65;;;2.08;;
54139;SDS011;40046;53.254;5.900;2023-07-31T12:35:23;6.95;;;1.98;;
54139;SDS011;40046;53.254;5.900;2023-07-31T12:37:49;10.05;;;2.17;;
54139;SDS011;40046;53.254;5.900;2023-07-31T12:40:15;6.80;;;1.90;;
54139;SDS011;40046;53.254;5.900;2023-07-31T12:42:41;9.93;;;2.50;;
54139;SDS011;40046;53.254;5.900;2023-07-31T12:45:07;7.72;;;2.17;;
54139;SDS011;40046;53.254;5.900;2023-07-31T12:47:34;7.82;;;2.83;;
54139;SDS011;40046;53.254;5.900;2023-07-31T12:50:00;13.50;;;3.65;;
54139;SDS011;40046;53.254;5.900;2023-07-31T12:52:26;10.35;;;3.17;;
54139;SDS011;40046;53.254;5.900;2023-07-31T12:54:52;11.57;;;2.75;;
54139;SDS011;40046;53.254;5.900;2023-07-31T12:57:18;15.20;;;3.53;;
54139;SDS011;40046;53.254;5.900;2023-07-31T12:59:45;9.98;;;2.85;;
54139;SDS011;40046;53.254;5.900;2023-07-31T13:02:11;10.63;;;2.97;;
54139;SDS011;40046;53.254;5.900;2023-07-31T13:04:37;8.65;;;2.90;;
54139;SDS011;40046;53.254;5.900;2023-07-31T13:07:03;9.30;;;3.33;;
54139;SDS011;40046;53.254;5.900;2023-07-31T13:09:29;9.50;;;3.15;;
54139;SDS011;40046;53.254;5.900;2023-07-31T13:11:55;10.43;;;2.67;;
54139;SDS011;40046;53.254;5.900;2023-07-31T13:14:21;8.55;;;2.28;;
54139;SDS011;40046;53.254;5.900;2023-07-31T13:16:48;8.95;;;3.88;;
54139;SDS011;40046;53.254;5.900;2023-07-31T13:19:14;10.02;;;3.53;;
54139;SDS011;40046;53.254;5.900;2023-07-31T13:21:40;10.55;;;3.53;;
54139;SDS011;40046;53.254;5.900;2023-07-31T13:24:06;9.77;;;2.95;;
54139;SDS011;40046;53.254;5.900;2023-07-31T13:26:32;8.10;;;2.65;;
54139;SDS011;40046;53.254;5.900;2023-07-31T13:29:00;8.73;;;3.22;;
54139;SDS011;40046;53.254;5.900;2023-07-31T13:31:26;8.32;;;2.58;;
54139;SDS011;40046;53.254;5.900;2023-07-31T13:33:53;11.40;;;2.90;;
54139;SDS011;40046;53.254;5.900;2023-07-31T13:36:19;12.45;;;2.80;;
54139;SDS011;40046;53.254;5.900;2023-07-31T13:38:45;9.18;;;2.72;;
54139;SDS011;40046;53.254;5.900;2023-07-31T13:41:11;6.35;;;2.38;;
54139;SDS011;40046;53.254;5.900;2023-07-31T13:43:37;8.95;;;3.17;;
54139;SDS011;40046;53.254;5.900;2023-07-31T13:46:03;7.78;;;3.38;;
54139;SDS011;40046;53.254;5.900;2023-07-31T13:48:35;10.80;;;3.50;;
54139;SDS011;40046;53.254;5.900;2023-07-31T13:51:01;9.75;;;3.70;;
54139;SDS011;40046;53.254;5.900;2023-07-31T13:53:27;8.07;;;3.53;;
54139;SDS011;40046;53.254;5.900;2023-07-31T13:55:53;9.07;;;2.80;;
54139;SDS011;40046;53.254;5.900;2023-07-31T13:58:20;13.75;;;3.28;;
54139;SDS011;40046;53.254;5.900;2023-07-31T14:00:46;7.88;;;3.58;;
54139;SDS011;40046;53.254;5.900;2023-07-31T14:03:12;10.77;;;3.45;;
54139;SDS011;40046;53.254;5.900;2023-07-31T14:05:38;10.55;;;4.07;;
54139;SDS011;40046;53.254;5.900;2023-07-31T14:08:04;9.60;;;5.35;;
54139;SDS011;40046;53.254;5.900;2023-07-31T14:10:31;11.68;;;3.40;;
54139;SDS011;40046;53.254;5.900;2023-07-31T14:12:57;13.70;;;4.32;;
54139;SDS011;40046;53.254;5.900;2023-07-31T14:15:23;11.82;;;4.03;;
54139;SDS011;40046;53.254;5.900;2023-07-31T14:17:49;11.07;;;3.90;;
54139;SDS011;40046;53.254;5.900;2023-07-31T14:20:15;10.40;;;4.15;;
54139;SDS011;40046;53.254;5.900;2023-07-31T14:22:41;13.43;;;4.53;;
54139;SDS011;40046;53.254;5.900;2023-07-31T14:25:07;11.20;;;4.78;;
54139;SDS011;40046;53.254;5.900;2023-07-31T14:27:35;9.68;;;3.40;;
54139;SDS011;40046;53.254;5.900;2023-07-31T14:30:02;9.38;;;3.45;;
54139;SDS011;40046;53.254;5.900;2023-07-31T14:32:28;11.07;;;3.92;;
54139;SDS011;40046;53.254;5.900;2023-07-31T14:34:54;14.52;;;4.40;;
54139;SDS011;40046;53.254;5.900;2023-07-31T14:37:20;11.57;;;4.88;;
54139;SDS011;40046;53.254;5.900;2023-07-31T14:39:46;13.27;;;4.32;;
54139;SDS011;40046;53.254;5.900;2023-07-31T14:42:12;11.40;;;3.25;;
54139;SDS011;40046;53.254;5.900;2023-07-31T14:44:39;8.80;;;4.00;;
54139;SDS011;40046;53.254;5.900;2023-07-31T14:47:05;12.80;;;3.78;;
54139;SDS011;40046;53.254;5.900;2023-07-31T14:49:31;13.10;;;3.88;;
54139;SDS011;40046;53.254;5.900;2023-07-31T14:51:57;12.05;;;3.55;;
54139;SDS011;40046;53.254;5.900;2023-07-31T14:54:23;13.98;;;3.75;;
54139;SDS011;40046;53.254;5.900;2023-07-31T14:56:49;10.43;;;4.05;;
54139;SDS011;40046;53.254;5.900;2023-07-31T14:59:15;18.38;;;3.72;;
54139;SDS011;40046;53.254;5.900;2023-07-31T15:01:41;9.65;;;3.17;;
54139;SDS011;40046;53.254;5.900;2023-07-31T15:04:08;10.18;;;3.60;;